sensor_id;sensor_type;location;lat;lon;timestamp;P1;durP1;ratioP1;P2;durP2;ratioP2
76477;SDS011;65309;49.790;18.972;2023-07-02T00:05:08;11.13;;;6.40;;
76477;SDS011;65309;49.790;18.972;2023-07-02T00:10:10;10.57;;;6.82;;
76477;SDS011;65309;49.790;18.972;2023-07-02T00:15:12;11.27;;;7.28;;
76477;SDS011;65309;49.790;18.972;2023-07-02T00:25:19;12.65;;;8.00;;
76477;SDS011;65309;49.790;18.972;2023-07-02T00:35:24;13.30;;;8.20;;
76477;SDS011;65309;49.790;18.972;2023-07-02T00:40:26;9.55;;;6.95;;
76477;SDS011;65309;49.790;18.972;2023-07-02T00:45:28;10.40;;;6.88;;
76477;SDS011;65309;49.790;18.972;2023-07-02T00:50:32;12.68;;;7.28;;
76477;SDS011;65309;49.790;18.972;2023-07-02T00:55:34;9.02;;;6.60;;
76477;SDS011;65309;49.790;18.972;2023-07-02T01:00:36;8.65;;;6.88;;
76477;SDS011;65309;49.790;18.972;2023-07-02T01:05:39;9.00;;;5.38;;
76477;SDS011;65309;49.790;18.972;2023-07-02T01:10:43;8.15;;;5.55;;
76477;SDS011;65309;49.790;18.972;2023-07-02T01:15:45;8.65;;;6.50;;
76477;SDS011;65309;49.790;18.972;2023-07-02T01:20:49;8.30;;;6.30;;
76477;SDS011;65309;49.790;18.972;2023-07-02T01:25:52;8.95;;;6.28;;
76477;SDS011;65309;49.790;18.972;2023-07-02T01:30:54;9.05;;;6.78;;
76477;SDS011;65309;49.790;18.972;2023-07-02T01:35:57;7.22;;;5.50;;
76477;SDS011;65309;49.790;18.972;2023-07-02T01:40:59;9.80;;;4.88;;
76477;SDS011;65309;49.790;18.972;2023-07-02T01:46:02;8.25;;;5.90;;
76477;SDS011;65309;49.790;18.972;2023-07-02T01:51:05;8.38;;;5.63;;
76477;SDS011;65309;49.790;18.972;2023-07-02T01:56:07;7.72;;;5.35;;
76477;SDS011;65309;49.790;18.972;2023-07-02T02:01:09;9.30;;;6.30;;
76477;SDS011;65309;49.790;18.972;2023-07-02T02:06:12;92.75;;;15.77;;
76477;SDS011;65309;49.790;18.972;2023-07-02T02:11:14;7.97;;;6.70;;
76477;SDS011;65309;49.790;18.972;2023-07-02T02:16:16;8.90;;;6.10;;
76477;SDS011;65309;49.790;18.972;2023-07-02T02:26:22;10.70;;;5.60;;
76477;SDS011;65309;49.790;18.972;2023-07-02T02:31:27;10.07;;;5.60;;
76477;SDS011;65309;49.790;18.972;2023-07-02T02:36:31;7.15;;;4.97;;
76477;SDS011;65309;49.790;18.972;2023-07-02T02:41:34;7.28;;;5.75;;
76477;SDS011;65309;49.790;18.972;2023-07-02T02:46:36;7.75;;;6.30;;
76477;SDS011;65309;49.790;18.972;2023-07-02T02:51:39;8.38;;;4.95;;
76477;SDS011;65309;49.790;18.972;2023-07-02T02:56:42;10.63;;;5.70;;
76477;SDS011;65309;49.790;18.972;2023-07-02T03:06:47;8.75;;;6.07;;
76477;SDS011;65309;49.790;18.972;2023-07-02T03:11:50;8.45;;;5.80;;
76477;SDS011;65309;49.790;18.972;2023-07-02T03:16:52;9.77;;;6.00;;
76477;SDS011;65309;49.790;18.972;2023-07-02T03:21:55;8.57;;;6.68;;
76477;SDS011;65309;49.790;18.972;2023-07-02T03:26:57;9.63;;;5.13;;
76477;SDS011;65309;49.790;18.972;2023-07-02T03:37:03;7.05;;;4.80;;
76477;SDS011;65309;49.790;18.972;2023-07-02T03:42:05;9.35;;;5.15;;
76477;SDS011;65309;49.790;18.972;2023-07-02T03:47:08;8.73;;;5.57;;
76477;SDS011;65309;49.790;18.972;2023-07-02T03:52:11;6.28;;;4.47;;
76477;SDS011;65309;49.790;18.972;2023-07-02T03:57:14;5.13;;;4.18;;
76477;SDS011;65309;49.790;18.972;2023-07-02T04:02:16;8.50;;;3.67;;
76477;SDS011;65309;49.790;18.972;2023-07-02T04:07:20;5.38;;;3.47;;
76477;SDS011;65309;49.790;18.972;2023-07-02T04:12:22;7.38;;;4.28;;
76477;SDS011;65309;49.790;18.972;2023-07-02T04:17:24;6.88;;;3.88;;
76477;SDS011;65309;49.790;18.972;2023-07-02T04:22:27;5.63;;;3.95;;
76477;SDS011;65309;49.790;18.972;2023-07-02T04:27:29;6.90;;;4.07;;
76477;SDS011;65309;49.790;18.972;2023-07-02T04:32:51;4.80;;;3.85;;
76477;SDS011;65309;49.790;18.972;2023-07-02T04:37:55;6.05;;;3.63;;
76477;SDS011;65309;49.790;18.972;2023-07-02T04:42:57;6.43;;;3.80;;
76477;SDS011;65309;49.790;18.972;2023-07-02T04:47:59;5.15;;;3.88;;
76477;SDS011;65309;49.790;18.972;2023-07-02T04:53:04;5.50;;;3.85;;
76477;SDS011;65309;49.790;18.972;2023-07-02T04:58:06;6.55;;;3.45;;
76477;SDS011;65309;49.790;18.972;2023-07-02T05:03:08;5.15;;;3.67;;
76477;SDS011;65309;49.790;18.972;2023-07-02T05:08:11;4.22;;;3.42;;
76477;SDS011;65309;49.790;18.972;2023-07-02T05:13:13;5.85;;;3.67;;
76477;SDS011;65309;49.790;18.972;2023-07-02T05:18:15;6.25;;;3.88;;
76477;SDS011;65309;49.790;18.972;2023-07-02T05:23:19;6.22;;;3.70;;
76477;SDS011;65309;49.790;18.972;2023-07-02T05:28:21;5.85;;;3.53;;
76477;SDS011;65309;49.790;18.972;2023-07-02T05:33:23;5.22;;;3.38;;
76477;SDS011;65309;49.790;18.972;2023-07-02T05:38:26;5.72;;;3.90;;
76477;SDS011;65309;49.790;18.972;2023-07-02T05:43:29;9.07;;;3.47;;
76477;SDS011;65309;49.790;18.972;2023-07-02T05:48:31;5.30;;;4.10;;
76477;SDS011;65309;49.790;18.972;2023-07-02T05:53:36;4.60;;;3.90;;
76477;SDS011;65309;49.790;18.972;2023-07-02T05:58:39;4.82;;;3.58;;
76477;SDS011;65309;49.790;18.972;2023-07-02T06:03:49;5.10;;;3.33;;
76477;SDS011;65309;49.790;18.972;2023-07-02T06:08:53;6.40;;;4.13;;
76477;SDS011;65309;49.790;18.972;2023-07-02T06:13:55;5.93;;;3.15;;
76477;SDS011;65309;49.790;18.972;2023-07-02T06:18:57;5.97;;;4.32;;
76477;SDS011;65309;49.790;18.972;2023-07-02T06:24:01;6.25;;;4.25;;
76477;SDS011;65309;49.790;18.972;2023-07-02T06:29:04;4.90;;;3.63;;
76477;SDS011;65309;49.790;18.972;2023-07-02T06:34:06;5.40;;;3.58;;
76477;SDS011;65309;49.790;18.972;2023-07-02T06:39:11;5.38;;;3.13;;
76477;SDS011;65309;49.790;18.972;2023-07-02T06:44:13;4.97;;;2.92;;
76477;SDS011;65309;49.790;18.972;2023-07-02T06:49:15;5.30;;;3.05;;
76477;SDS011;65309;49.790;18.972;2023-07-02T06:54:19;5.00;;;3.30;;
76477;SDS011;65309;49.790;18.972;2023-07-02T06:59:21;5.22;;;3.50;;
76477;SDS011;65309;49.790;18.972;2023-07-02T07:04:24;6.57;;;2.78;;
76477;SDS011;65309;49.790;18.972;2023-07-02T07:09:27;4.03;;;3.15;;
76477;SDS011;65309;49.790;18.972;2023-07-02T07:14:30;4.68;;;3.25;;
76477;SDS011;65309;49.790;18.972;2023-07-02T07:19:32;5.00;;;2.85;;
76477;SDS011;65309;49.790;18.972;2023-07-02T07:24:35;4.70;;;2.83;;
76477;SDS011;65309;49.790;18.972;2023-07-02T07:29:37;4.88;;;3.13;;
76477;SDS011;65309;49.790;18.972;2023-07-02T07:34:39;4.72;;;3.20;;
76477;SDS011;65309;49.790;18.972;2023-07-02T07:39:43;5.30;;;3.90;;
76477;SDS011;65309;49.790;18.972;2023-07-02T07:44:45;6.78;;;3.88;;
76477;SDS011;65309;49.790;18.972;2023-07-02T07:49:47;6.55;;;3.28;;
76477;SDS011;65309;49.790;18.972;2023-07-02T07:54:51;5.78;;;3.85;;
76477;SDS011;65309;49.790;18.972;2023-07-02T07:59:53;4.10;;;3.20;;
76477;SDS011;65309;49.790;18.972;2023-07-02T08:04:55;4.80;;;2.72;;
76477;SDS011;65309;49.790;18.972;2023-07-02T08:09:59;6.25;;;3.03;;
76477;SDS011;65309;49.790;18.972;2023-07-02T08:15:01;4.65;;;3.10;;
76477;SDS011;65309;49.790;18.972;2023-07-02T08:20:04;4.13;;;3.65;;
76477;SDS011;65309;49.790;18.972;2023-07-02T08:25:12;5.28;;;3.30;;
76477;SDS011;65309;49.790;18.972;2023-07-02T08:30:14;4.65;;;3.40;;
76477;SDS011;65309;49.790;18.972;2023-07-02T08:35:16;5.65;;;3.60;;
76477;SDS011;65309;49.790;18.972;2023-07-02T08:40:20;4.70;;;3.53;;
76477;SDS011;65309;49.790;18.972;2023-07-02T08:45:22;4.95;;;3.40;;
76477;SDS011;65309;49.790;18.972;2023-07-02T08:50:27;4.82;;;3.72;;
76477;SDS011;65309;49.790;18.972;2023-07-02T08:55:31;4.97;;;4.10;;
76477;SDS011;65309;49.790;18.972;2023-07-02T09:00:33;4.55;;;3.50;;
76477;SDS011;65309;49.790;18.972;2023-07-02T09:05:47;4.68;;;3.13;;
76477;SDS011;65309;49.790;18.972;2023-07-02T09:10:51;4.40;;;3.17;;
76477;SDS011;65309;49.790;18.972;2023-07-02T09:15:53;4.43;;;3.40;;
76477;SDS011;65309;49.790;18.972;2023-07-02T09:20:55;4.07;;;2.75;;
76477;SDS011;65309;49.790;18.972;2023-07-02T09:25:59;4.35;;;3.42;;
76477;SDS011;65309;49.790;18.972;2023-07-02T09:31:01;4.85;;;3.30;;
76477;SDS011;65309;49.790;18.972;2023-07-02T09:36:03;3.38;;;2.75;;
76477;SDS011;65309;49.790;18.972;2023-07-02T09:41:08;5.05;;;2.90;;
76477;SDS011;65309;49.790;18.972;2023-07-02T09:46:10;3.22;;;2.63;;
76477;SDS011;65309;49.790;18.972;2023-07-02T09:51:12;3.10;;;2.65;;
76477;SDS011;65309;49.790;18.972;2023-07-02T09:56:16;4.90;;;3.17;;
76477;SDS011;65309;49.790;18.972;2023-07-02T10:01:18;3.97;;;3.38;;
76477;SDS011;65309;49.790;18.972;2023-07-02T10:06:20;3.63;;;2.65;;
76477;SDS011;65309;49.790;18.972;2023-07-02T10:11:33;4.68;;;3.40;;
76477;SDS011;65309;49.790;18.972;2023-07-02T10:22:00;6.13;;;3.15;;
76477;SDS011;65309;49.790;18.972;2023-07-02T10:27:05;3.70;;;2.70;;
76477;SDS011;65309;49.790;18.972;2023-07-02T10:32:07;2.92;;;2.45;;
76477;SDS011;65309;49.790;18.972;2023-07-02T10:37:10;2.90;;;2.30;;
76477;SDS011;65309;49.790;18.972;2023-07-02T10:42:13;3.78;;;2.42;;
76477;SDS011;65309;49.790;18.972;2023-07-02T10:47:15;5.50;;;2.92;;
76477;SDS011;65309;49.790;18.972;2023-07-02T10:52:17;3.83;;;2.92;;
76477;SDS011;65309;49.790;18.972;2023-07-02T10:57:20;2.85;;;2.30;;
76477;SDS011;65309;49.790;18.972;2023-07-02T11:02:23;2.45;;;2.20;;
76477;SDS011;65309;49.790;18.972;2023-07-02T11:07:26;5.05;;;2.58;;
76477;SDS011;65309;49.790;18.972;2023-07-02T11:12:30;2.75;;;2.25;;
76477;SDS011;65309;49.790;18.972;2023-07-02T11:17:32;2.45;;;2.03;;
76477;SDS011;65309;49.790;18.972;2023-07-02T11:22:36;3.78;;;2.10;;
76477;SDS011;65309;49.790;18.972;2023-07-02T11:27:41;2.95;;;2.22;;
76477;SDS011;65309;49.790;18.972;2023-07-02T11:32:47;2.17;;;1.73;;
76477;SDS011;65309;49.790;18.972;2023-07-02T11:37:53;1.98;;;1.75;;
76477;SDS011;65309;49.790;18.972;2023-07-02T11:42:56;2.47;;;1.77;;
76477;SDS011;65309;49.790;18.972;2023-07-02T11:47:58;2.45;;;1.30;;
76477;SDS011;65309;49.790;18.972;2023-07-02T11:53:00;1.95;;;1.17;;
76477;SDS011;65309;49.790;18.972;2023-07-02T11:58:06;1.90;;;1.58;;
76477;SDS011;65309;49.790;18.972;2023-07-02T12:03:08;1.90;;;1.63;;
76477;SDS011;65309;49.790;18.972;2023-07-02T12:08:12;1.65;;;1.50;;
76477;SDS011;65309;49.790;18.972;2023-07-02T12:13:15;2.88;;;2.15;;
76477;SDS011;65309;49.790;18.972;2023-07-02T12:18:17;2.78;;;1.75;;
76477;SDS011;65309;49.790;18.972;2023-07-02T12:23:19;2.20;;;1.92;;
76477;SDS011;65309;49.790;18.972;2023-07-02T12:28:23;3.25;;;2.20;;
76477;SDS011;65309;49.790;18.972;2023-07-02T12:33:25;3.10;;;1.90;;
76477;SDS011;65309;49.790;18.972;2023-07-02T12:38:27;2.22;;;1.80;;
76477;SDS011;65309;49.790;18.972;2023-07-02T12:43:31;2.10;;;1.80;;
76477;SDS011;65309;49.790;18.972;2023-07-02T12:48:33;4.55;;;4.15;;
76477;SDS011;65309;49.790;18.972;2023-07-02T12:53:35;3.72;;;2.00;;
76477;SDS011;65309;49.790;18.972;2023-07-02T12:58:39;3.92;;;3.55;;
76477;SDS011;65309;49.790;18.972;2023-07-02T13:03:44;2.67;;;2.17;;
76477;SDS011;65309;49.790;18.972;2023-07-02T13:08:47;2.97;;;2.67;;
76477;SDS011;65309;49.790;18.972;2023-07-02T13:13:50;3.03;;;2.20;;
76477;SDS011;65309;49.790;18.972;2023-07-02T13:18:52;3.58;;;2.40;;
76477;SDS011;65309;49.790;18.972;2023-07-02T13:23:57;4.03;;;2.17;;
76477;SDS011;65309;49.790;18.972;2023-07-02T13:29:00;3.25;;;1.98;;
76477;SDS011;65309;49.790;18.972;2023-07-02T13:34:02;3.58;;;1.83;;
76477;SDS011;65309;49.790;18.972;2023-07-02T13:39:04;2.00;;;1.80;;
76477;SDS011;65309;49.790;18.972;2023-07-02T13:44:08;2.63;;;2.42;;
76477;SDS011;65309;49.790;18.972;2023-07-02T13:49:10;4.72;;;2.60;;
76477;SDS011;65309;49.790;18.972;2023-07-02T13:54:12;3.63;;;2.60;;
76477;SDS011;65309;49.790;18.972;2023-07-02T13:59:18;3.55;;;2.63;;
76477;SDS011;65309;49.790;18.972;2023-07-02T14:04:21;5.35;;;3.45;;
76477;SDS011;65309;49.790;18.972;2023-07-02T14:09:23;8.45;;;3.30;;
76477;SDS011;65309;49.790;18.972;2023-07-02T14:14:26;4.90;;;3.00;;
76477;SDS011;65309;49.790;18.972;2023-07-02T14:19:28;3.10;;;2.40;;
76477;SDS011;65309;49.790;18.972;2023-07-02T14:24:30;3.53;;;2.35;;
76477;SDS011;65309;49.790;18.972;2023-07-02T14:29:34;2.85;;;2.38;;
76477;SDS011;65309;49.790;18.972;2023-07-02T14:34:36;3.53;;;2.38;;
76477;SDS011;65309;49.790;18.972;2023-07-02T14:39:38;2.78;;;2.47;;
76477;SDS011;65309;49.790;18.972;2023-07-02T14:44:46;3.47;;;2.40;;
76477;SDS011;65309;49.790;18.972;2023-07-02T14:49:49;2.83;;;2.20;;
76477;SDS011;65309;49.790;18.972;2023-07-02T14:54:51;3.13;;;2.40;;
76477;SDS011;65309;49.790;18.972;2023-07-02T14:59:54;2.75;;;2.00;;
76477;SDS011;65309;49.790;18.972;2023-07-02T15:04:56;3.47;;;2.40;;
76477;SDS011;65309;49.790;18.972;2023-07-02T15:09:59;2.85;;;2.10;;
76477;SDS011;65309;49.790;18.972;2023-07-02T15:15:02;2.47;;;2.17;;
76477;SDS011;65309;49.790;18.972;2023-07-02T15:20:05;3.90;;;2.17;;
76477;SDS011;65309;49.790;18.972;2023-07-02T15:25:08;2.78;;;2.08;;
76477;SDS011;65309;49.790;18.972;2023-07-02T15:30:12;3.63;;;2.00;;
76477;SDS011;65309;49.790;18.972;2023-07-02T15:35:14;2.40;;;2.00;;
76477;SDS011;65309;49.790;18.972;2023-07-02T15:40:16;6.07;;;2.10;;
76477;SDS011;65309;49.790;18.972;2023-07-02T15:45:20;3.30;;;2.33;;
76477;SDS011;65309;49.790;18.972;2023-07-02T15:50:22;3.13;;;1.80;;
76477;SDS011;65309;49.790;18.972;2023-07-02T15:55:24;2.53;;;2.00;;
76477;SDS011;65309;49.790;18.972;2023-07-02T16:00:28;2.30;;;1.80;;
76477;SDS011;65309;49.790;18.972;2023-07-02T16:05:30;2.40;;;1.90;;
76477;SDS011;65309;49.790;18.972;2023-07-02T16:10:41;3.30;;;1.92;;
76477;SDS011;65309;49.790;18.972;2023-07-02T16:15:45;2.75;;;2.20;;
76477;SDS011;65309;49.790;18.972;2023-07-02T16:20:54;2.33;;;1.90;;
76477;SDS011;65309;49.790;18.972;2023-07-02T16:25:57;3.03;;;2.30;;
76477;SDS011;65309;49.790;18.972;2023-07-02T16:31:05;3.72;;;3.42;;
76477;SDS011;65309;49.790;18.972;2023-07-02T16:36:11;2.80;;;2.22;;
76477;SDS011;65309;49.790;18.972;2023-07-02T16:41:13;3.00;;;1.90;;
76477;SDS011;65309;49.790;18.972;2023-07-02T16:46:17;3.38;;;2.20;;
76477;SDS011;65309;49.790;18.972;2023-07-02T16:51:19;3.13;;;2.20;;
76477;SDS011;65309;49.790;18.972;2023-07-02T16:56:21;3.10;;;2.38;;
76477;SDS011;65309;49.790;18.972;2023-07-02T17:01:25;2.50;;;2.10;;
76477;SDS011;65309;49.790;18.972;2023-07-02T17:06:27;3.10;;;2.50;;
76477;SDS011;65309;49.790;18.972;2023-07-02T17:11:29;2.78;;;2.08;;
76477;SDS011;65309;49.790;18.972;2023-07-02T17:16:32;2.45;;;2.00;;
76477;SDS011;65309;49.790;18.972;2023-07-02T17:21:34;3.47;;;2.25;;
76477;SDS011;65309;49.790;18.972;2023-07-02T17:26:36;2.53;;;2.05;;
76477;SDS011;65309;49.790;18.972;2023-07-02T17:31:40;2.38;;;1.98;;
76477;SDS011;65309;49.790;18.972;2023-07-02T17:36:42;2.80;;;1.98;;
76477;SDS011;65309;49.790;18.972;2023-07-02T17:41:45;2.80;;;2.35;;
76477;SDS011;65309;49.790;18.972;2023-07-02T17:46:50;3.42;;;2.10;;
76477;SDS011;65309;49.790;18.972;2023-07-02T17:51:54;4.95;;;2.58;;
76477;SDS011;65309;49.790;18.972;2023-07-02T17:56:57;3.47;;;2.88;;
76477;SDS011;65309;49.790;18.972;2023-07-02T18:02:01;5.53;;;3.90;;
76477;SDS011;65309;49.790;18.972;2023-07-02T18:07:05;34.55;;;6.32;;
76477;SDS011;65309;49.790;18.972;2023-07-02T18:12:09;5.43;;;3.10;;
76477;SDS011;65309;49.790;18.972;2023-07-02T18:17:14;5.10;;;4.00;;
76477;SDS011;65309;49.790;18.972;2023-07-02T18:22:17;4.35;;;3.47;;
76477;SDS011;65309;49.790;18.972;2023-07-02T18:27:19;5.30;;;3.17;;
76477;SDS011;65309;49.790;18.972;2023-07-02T18:32:25;4.00;;;3.25;;
76477;SDS011;65309;49.790;18.972;2023-07-02T18:42:33;3.85;;;3.15;;
76477;SDS011;65309;49.790;18.972;2023-07-02T18:47:37;3.92;;;2.90;;
76477;SDS011;65309;49.790;18.972;2023-07-02T18:52:39;40.75;;;14.32;;
76477;SDS011;65309;49.790;18.972;2023-07-02T18:57:42;3.92;;;2.97;;
76477;SDS011;65309;49.790;18.972;2023-07-02T19:02:48;4.47;;;3.60;;
76477;SDS011;65309;49.790;18.972;2023-07-02T19:07:51;3.58;;;3.10;;
76477;SDS011;65309;49.790;18.972;2023-07-02T19:12:53;4.13;;;3.03;;
76477;SDS011;65309;49.790;18.972;2023-07-02T19:22:58;3.85;;;2.95;;
76477;SDS011;65309;49.790;18.972;2023-07-02T19:28:01;4.25;;;3.30;;
76477;SDS011;65309;49.790;18.972;2023-07-02T19:38:07;4.70;;;3.22;;
76477;SDS011;65309;49.790;18.972;2023-07-02T19:48:14;3.58;;;2.83;;
76477;SDS011;65309;49.790;18.972;2023-07-02T19:53:16;3.60;;;2.67;;
76477;SDS011;65309;49.790;18.972;2023-07-02T19:58:18;3.63;;;3.13;;
76477;SDS011;65309;49.790;18.972;2023-07-02T20:08:27;4.97;;;2.50;;
76477;SDS011;65309;49.790;18.972;2023-07-02T20:13:30;3.85;;;2.80;;
76477;SDS011;65309;49.790;18.972;2023-07-02T20:18:33;3.75;;;2.70;;
76477;SDS011;65309;49.790;18.972;2023-07-02T20:23:35;3.20;;;2.75;;
76477;SDS011;65309;49.790;18.972;2023-07-02T20:28:37;3.47;;;2.75;;
76477;SDS011;65309;49.790;18.972;2023-07-02T20:33:41;3.17;;;2.85;;
76477;SDS011;65309;49.790;18.972;2023-07-02T20:38:43;4.10;;;2.80;;
76477;SDS011;65309;49.790;18.972;2023-07-02T20:48:49;3.28;;;2.63;;
76477;SDS011;65309;49.790;18.972;2023-07-02T20:53:51;11.05;;;3.28;;
76477;SDS011;65309;49.790;18.972;2023-07-02T20:58:53;6.60;;;3.33;;
76477;SDS011;65309;49.790;18.972;2023-07-02T21:03:56;7.22;;;3.80;;
76477;SDS011;65309;49.790;18.972;2023-07-02T21:09:01;4.30;;;2.92;;
76477;SDS011;65309;49.790;18.972;2023-07-02T21:14:04;3.53;;;3.15;;
76477;SDS011;65309;49.790;18.972;2023-07-02T21:19:10;5.30;;;3.15;;
76477;SDS011;65309;49.790;18.972;2023-07-02T21:24:12;7.85;;;3.60;;
76477;SDS011;65309;49.790;18.972;2023-07-02T21:29:15;4.40;;;3.25;;
76477;SDS011;65309;49.790;18.972;2023-07-02T21:34:18;4.13;;;3.35;;
76477;SDS011;65309;49.790;18.972;2023-07-02T21:39:20;4.35;;;2.92;;
76477;SDS011;65309;49.790;18.972;2023-07-02T21:44:22;3.70;;;2.95;;
76477;SDS011;65309;49.790;18.972;2023-07-02T21:49:26;3.65;;;3.05;;
76477;SDS011;65309;49.790;18.972;2023-07-02T21:54:28;4.20;;;2.95;;
76477;SDS011;65309;49.790;18.972;2023-07-02T21:59:30;5.70;;;2.85;;
76477;SDS011;65309;49.790;18.972;2023-07-02T22:04:33;2.97;;;2.60;;
76477;SDS011;65309;49.790;18.972;2023-07-02T22:09:35;3.72;;;3.20;;
76477;SDS011;65309;49.790;18.972;2023-07-02T22:14:37;3.55;;;2.97;;
76477;SDS011;65309;49.790;18.972;2023-07-02T22:19:41;3.85;;;3.35;;
76477;SDS011;65309;49.790;18.972;2023-07-02T22:24:44;9.45;;;3.10;;
76477;SDS011;65309;49.790;18.972;2023-07-02T22:29:48;4.18;;;3.13;;
76477;SDS011;65309;49.790;18.972;2023-07-02T22:34:51;4.07;;;3.15;;
76477;SDS011;65309;49.790;18.972;2023-07-02T22:39:53;4.32;;;3.25;;
76477;SDS011;65309;49.790;18.972;2023-07-02T22:44:55;6.75;;;3.38;;
76477;SDS011;65309;49.790;18.972;2023-07-02T22:49:59;4.45;;;3.50;;
76477;SDS011;65309;49.790;18.972;2023-07-02T22:55:01;4.13;;;3.55;;
76477;SDS011;65309;49.790;18.972;2023-07-02T23:00:04;5.78;;;3.03;;
76477;SDS011;65309;49.790;18.972;2023-07-02T23:05:17;5.93;;;3.67;;
76477;SDS011;65309;49.790;18.972;2023-07-02T23:10:20;4.10;;;3.10;;
76477;SDS011;65309;49.790;18.972;2023-07-02T23:15:23;5.85;;;3.80;;
76477;SDS011;65309;49.790;18.972;2023-07-02T23:20:26;4.50;;;3.67;;
76477;SDS011;65309;49.790;18.972;2023-07-02T23:25:29;6.50;;;3.78;;
76477;SDS011;65309;49.790;18.972;2023-07-02T23:35:39;5.05;;;4.38;;
76477;SDS011;65309;49.790;18.972;2023-07-02T23:40:41;6.70;;;3.92;;
76477;SDS011;65309;49.790;18.972;2023-07-02T23:45:43;5.38;;;4.00;;
76477;SDS011;65309;49.790;18.972;2023-07-02T23:50:46;5.57;;;4.22;;
76477;SDS011;65309;49.790;18.972;2023-07-02T23:55:48;7.38;;;3.95;;
